createdAt,value
2017-07-16T00:00:39.427Z,19.21
2017-07-16T00:01:39.410Z,19.25
2017-07-16T00:02:38.777Z,19.21
2017-07-16T00:03:38.769Z,19.19
2017-07-16T00:04:39.377Z,19.26
2017-07-16T00:05:38.727Z,19.26
2017-07-16T00:06:39.021Z,19.21
2017-07-16T00:07:39.027Z,19.22
2017-07-16T00:08:38.999Z,19.38
2017-07-16T00:09:38.977Z,19.26
2017-07-16T00:10:38.957Z,19.37
2017-07-16T00:11:38.957Z,19.36
2017-07-16T00:12:39.248Z,19.33
2017-07-16T00:13:38.910Z,19.4
2017-07-16T00:14:38.905Z,19.4
2017-07-16T00:15:38.893Z,19.44
2017-07-16T00:16:39.210Z,19.43
2017-07-16T00:17:38.868Z,19.41
2017-07-16T00:18:38.549Z,19.46
2017-07-16T00:19:39.146Z,19.43
2017-07-16T00:20:39.127Z,19.4
2017-07-16T00:21:39.129Z,19.4
2017-07-16T00:22:38.799Z,19.44
2017-07-16T00:23:38.777Z,19.41
2017-07-16T00:24:38.770Z,19.48
2017-07-16T00:25:38.569Z,19.51
2017-07-16T00:26:38.737Z,19.46
2017-07-16T00:27:38.742Z,19.4
2017-07-16T00:28:38.387Z,19.43
2017-07-16T00:29:38.697Z,19.4
2017-07-16T00:30:38.976Z,19.52
2017-07-16T00:31:38.979Z,19.41
2017-07-16T00:32:38.628Z,19.4
2017-07-16T00:33:38.336Z,19.44
2017-07-16T00:34:38.925Z,19.38
2017-07-16T00:35:38.593Z,19.38
2017-07-16T00:36:38.587Z,19.44
2017-07-16T00:37:38.588Z,19.4
2017-07-16T00:38:38.236Z,19.44
2017-07-16T00:39:38.932Z,19.38
2017-07-16T00:40:38.837Z,19.31
2017-07-16T00:41:38.558Z,19.3
2017-07-16T00:42:38.799Z,19.3
2017-07-16T00:43:38.530Z,19.28
2017-07-16T00:44:38.776Z,19.34
2017-07-16T00:45:38.795Z,19.3
2017-07-16T00:46:38.436Z,19.33
2017-07-16T00:47:38.754Z,19.38
2017-07-16T00:48:38.406Z,19.33
2017-07-16T00:49:38.410Z,19.33
2017-07-16T00:50:38.412Z,19.46
2017-07-16T00:51:38.679Z,19.38
2017-07-16T00:52:38.656Z,19.41
2017-07-16T00:53:38.318Z,19.46
2017-07-16T00:54:38.629Z,19.41
2017-07-16T00:55:38.320Z,19.43
2017-07-16T00:56:38.660Z,19.36
2017-07-16T00:57:38.604Z,19.3
2017-07-16T00:58:38.569Z,19.37
2017-07-16T00:59:38.590Z,19.31
2017-07-16T01:00:38.558Z,19.33
2017-07-16T01:01:38.511Z,19.31
2017-07-16T01:02:38.186Z,19.4
2017-07-16T01:03:38.177Z,19.3
2017-07-16T01:04:38.472Z,19.38
2017-07-16T01:05:38.457Z,19.36
2017-07-16T01:06:38.177Z,19.33
2017-07-16T01:07:38.459Z,19.25
2017-07-16T01:08:37.798Z,19.23
2017-07-16T01:09:38.404Z,19.26
2017-07-16T01:10:38.390Z,19.25
2017-07-16T01:11:38.359Z,19.31
2017-07-16T01:12:38.031Z,19.37
2017-07-16T01:13:38.382Z,19.37
2017-07-16T01:14:38.322Z,19.34
2017-07-16T01:15:37.996Z,19.4
2017-07-16T01:16:38.348Z,19.44
2017-07-16T01:17:37.963Z,19.4
2017-07-16T01:18:37.977Z,19.34
2017-07-16T01:19:38.285Z,19.38
2017-07-16T01:20:38.234Z,19.38
2017-07-16T01:21:38.217Z,19.48
2017-07-16T01:22:38.206Z,19.43
2017-07-16T01:23:38.205Z,19.46
2017-07-16T01:24:37.857Z,19.43
2017-07-16T01:25:38.177Z,19.52
2017-07-16T01:26:37.827Z,19.43
2017-07-16T01:27:37.823Z,19.44
2017-07-16T01:28:38.110Z,19.4
2017-07-16T01:29:38.127Z,19.28
2017-07-16T01:30:37.766Z,19.4
2017-07-16T01:31:37.743Z,19.33
2017-07-16T01:32:38.060Z,19.28
2017-07-16T01:33:38.038Z,19.19
2017-07-16T01:34:38.033Z,19.22
2017-07-16T01:35:37.687Z,19.19
2017-07-16T01:36:38.007Z,19.15
2017-07-16T01:37:37.350Z,19.04
2017-07-16T01:38:37.958Z,18.99
2017-07-16T01:39:37.633Z,19.06
2017-07-16T01:40:37.938Z,19.14
2017-07-16T01:41:37.289Z,19.04
2017-07-16T01:42:37.909Z,19.08
2017-07-16T01:43:37.253Z,19.06
2017-07-16T01:44:37.247Z,19.06
2017-07-16T01:45:37.857Z,19.06
2017-07-16T01:46:37.531Z,19
2017-07-16T01:47:37.199Z,19.11
2017-07-16T01:48:37.492Z,19.15
2017-07-16T01:49:37.784Z,19.04
2017-07-16T01:50:37.488Z,19.02
2017-07-16T01:51:37.771Z,19
2017-07-16T01:52:37.750Z,18.99
2017-07-16T01:53:37.727Z,18.99
2017-07-16T01:54:37.409Z,18.96
2017-07-16T01:55:37.385Z,18.99
2017-07-16T01:56:37.691Z,19.04
2017-07-16T01:57:37.666Z,19
2017-07-16T01:58:37.358Z,19.07
2017-07-16T01:59:37.647Z,18.99
2017-07-16T02:00:37.650Z,18.99
2017-07-16T02:01:37.637Z,19.02
2017-07-16T02:02:37.298Z,18.99
2017-07-16T02:03:37.269Z,18.97
2017-07-16T02:04:36.945Z,19.06
2017-07-16T02:05:37.253Z,19.06
2017-07-16T02:06:37.227Z,19.14
2017-07-16T02:07:37.218Z,19.06
2017-07-16T02:08:37.198Z,18.99
2017-07-16T02:09:37.197Z,19.08
2017-07-16T02:10:37.470Z,19.07
2017-07-16T02:11:36.842Z,19.07
2017-07-16T02:12:37.450Z,19.04
2017-07-16T02:13:37.437Z,19.08
2017-07-16T02:14:37.100Z,19.16
2017-07-16T02:15:36.773Z,19.08
2017-07-16T02:16:37.086Z,18.97
2017-07-16T02:17:37.064Z,19.02
2017-07-16T02:18:37.045Z,18.97
2017-07-16T02:19:37.018Z,19.06
2017-07-16T02:20:36.712Z,19.04
2017-07-16T02:21:37.303Z,19.14
2017-07-16T02:22:36.981Z,19.06
2017-07-16T02:23:37.270Z,19.06
2017-07-16T02:24:37.274Z,19.08
2017-07-16T02:25:36.953Z,19.12
2017-07-16T02:26:37.230Z,19.14
2017-07-16T02:27:36.920Z,19.18
2017-07-16T02:28:37.000Z,19.16
2017-07-16T02:29:36.871Z,19.07
2017-07-16T02:30:36.897Z,19.06
2017-07-16T02:31:36.857Z,19.04
2017-07-16T02:32:37.141Z,19.04
2017-07-16T02:33:36.819Z,19.07
2017-07-16T02:34:36.808Z,19.12
2017-07-16T02:35:36.781Z,19.04
2017-07-16T02:36:37.121Z,19.06
2017-07-16T02:37:36.744Z,19.06
2017-07-16T02:38:37.050Z,19
2017-07-16T02:39:37.073Z,19.07
2017-07-16T02:40:36.500Z,19.11
2017-07-16T02:41:37.006Z,19.04
2017-07-16T02:42:36.999Z,19.12
2017-07-16T02:43:36.364Z,19.15
2017-07-16T02:44:36.968Z,19.15
2017-07-16T02:45:36.683Z,19.19
2017-07-16T02:46:36.929Z,19.19
2017-07-16T02:47:36.290Z,19.21
2017-07-16T02:48:36.608Z,19.19
2017-07-16T02:49:36.633Z,19.25
2017-07-16T02:50:36.611Z,19.25
2017-07-16T02:51:36.908Z,19.19
2017-07-16T02:52:36.542Z,19.22
2017-07-16T02:53:36.213Z,19.21
2017-07-16T02:54:36.498Z,19.14
2017-07-16T02:55:36.840Z,19.21
2017-07-16T02:56:36.458Z,19.19
2017-07-16T02:57:36.461Z,19.16
2017-07-16T02:58:36.746Z,19.21
2017-07-16T02:59:36.728Z,19.19
2017-07-16T03:00:36.719Z,19.37
2017-07-16T03:01:36.764Z,19.31
2017-07-16T03:02:36.377Z,19.26
2017-07-16T03:03:36.048Z,19.31
2017-07-16T03:04:36.031Z,19.34
2017-07-16T03:05:36.689Z,19.19
2017-07-16T03:06:35.999Z,19.22
2017-07-16T03:07:36.611Z,19.19
2017-07-16T03:08:36.282Z,19.19
2017-07-16T03:09:36.598Z,19.26
2017-07-16T03:10:36.250Z,19.31
2017-07-16T03:11:36.248Z,19.33
2017-07-16T03:12:36.230Z,19.33
2017-07-16T03:13:36.210Z,19.34
2017-07-16T03:14:36.522Z,19.3
2017-07-16T03:15:36.194Z,19.15
2017-07-16T03:16:36.171Z,19.21
2017-07-16T03:17:36.507Z,19.12
2017-07-16T03:18:36.449Z,19.26
2017-07-16T03:19:36.467Z,19.34
2017-07-16T03:20:36.099Z,19.37
2017-07-16T03:21:36.412Z,19.38
2017-07-16T03:22:36.069Z,19.34
2017-07-16T03:23:36.050Z,19.4
2017-07-16T03:24:36.051Z,19.34
2017-07-16T03:25:36.052Z,19.21
2017-07-16T03:26:36.016Z,19.25
2017-07-16T03:27:36.019Z,19.3
2017-07-16T03:28:36.290Z,19.33
2017-07-16T03:29:36.278Z,19.21
2017-07-16T03:30:35.960Z,19.34
2017-07-16T03:31:35.939Z,19.22
2017-07-16T03:32:35.919Z,19.21
2017-07-16T03:33:36.220Z,19.22
2017-07-16T03:34:35.886Z,19.11
2017-07-16T03:35:35.880Z,19.15
2017-07-16T03:36:35.562Z,19.19
2017-07-16T03:37:36.170Z,19.06
2017-07-16T03:38:36.155Z,19.06
2017-07-16T03:39:36.129Z,19.23
2017-07-16T03:40:36.112Z,19.21
2017-07-16T03:41:36.082Z,19.21
2017-07-16T03:42:36.085Z,19.18
2017-07-16T03:43:35.758Z,19.31
2017-07-16T03:44:36.070Z,19.31
2017-07-16T03:45:36.046Z,19.41
2017-07-16T03:46:36.037Z,19.43
2017-07-16T03:47:36.033Z,19.46
2017-07-16T03:48:35.681Z,19.41
2017-07-16T03:49:35.979Z,19.48
2017-07-16T03:50:35.970Z,19.55
2017-07-16T03:51:35.985Z,19.49
2017-07-16T03:52:35.955Z,19.53
2017-07-16T03:53:35.602Z,19.59
2017-07-16T03:54:35.590Z,19.55
2017-07-16T03:55:35.570Z,19.53
2017-07-16T03:56:35.560Z,19.63
2017-07-16T03:57:35.539Z,19.51
2017-07-16T03:58:35.530Z,19.61
2017-07-16T03:59:35.503Z,19.61
2017-07-16T04:00:35.549Z,19.58
2017-07-16T04:01:35.810Z,19.49
2017-07-16T04:02:35.779Z,19.53
2017-07-16T04:03:35.442Z,19.53
2017-07-16T04:04:35.442Z,19.51
2017-07-16T04:05:35.742Z,19.48
2017-07-16T04:06:35.441Z,19.51
2017-07-16T04:07:35.708Z,19.53
2017-07-16T04:08:35.690Z,19.62
2017-07-16T04:09:35.680Z,19.59
2017-07-16T04:10:35.689Z,19.55
2017-07-16T04:11:35.651Z,19.55
2017-07-16T04:12:35.340Z,19.51
2017-07-16T04:13:35.619Z,19.44
2017-07-16T04:14:35.614Z,19.52
2017-07-16T04:15:35.585Z,19.43
2017-07-16T04:16:35.576Z,19.51
2017-07-16T04:17:35.547Z,19.43
2017-07-16T04:18:35.543Z,19.53
2017-07-16T04:19:34.910Z,19.4
2017-07-16T04:20:34.890Z,19.52
2017-07-16T04:21:35.183Z,19.51
2017-07-16T04:22:35.191Z,19.43
2017-07-16T04:23:35.163Z,19.44
2017-07-16T04:24:35.150Z,19.33
2017-07-16T04:25:34.817Z,19.33
2017-07-16T04:26:35.111Z,19.4
2017-07-16T04:27:34.810Z,19.33
2017-07-16T04:28:35.390Z,19.34
2017-07-16T04:29:34.759Z,19.37
2017-07-16T04:30:35.057Z,19.33
2017-07-16T04:31:35.418Z,19.28
2017-07-16T04:32:35.019Z,19.43
2017-07-16T04:33:35.421Z,19.41
2017-07-16T04:34:35.308Z,19.4
2017-07-16T04:35:35.028Z,19.41
2017-07-16T04:36:35.295Z,19.26
2017-07-16T04:37:34.961Z,19.28
2017-07-16T04:38:35.272Z,19.4
2017-07-16T04:39:34.621Z,19.4
2017-07-16T04:40:34.900Z,19.41
2017-07-16T04:41:34.898Z,19.46
2017-07-16T04:42:35.198Z,19.48
2017-07-16T04:43:35.187Z,19.31
2017-07-16T04:44:34.526Z,19.43
2017-07-16T04:45:35.138Z,19.49
2017-07-16T04:46:34.818Z,19.43
2017-07-16T04:47:35.106Z,19.31
2017-07-16T04:48:34.784Z,19.4
2017-07-16T04:49:35.100Z,19.44
2017-07-16T04:50:34.753Z,19.48
2017-07-16T04:51:35.062Z,19.38
2017-07-16T04:52:34.829Z,19.51
2017-07-16T04:53:35.034Z,19.52
2017-07-16T04:54:35.018Z,19.52
2017-07-16T04:55:34.369Z,19.52
2017-07-16T04:56:35.018Z,19.51
2017-07-16T04:57:34.647Z,19.38
2017-07-16T04:58:35.025Z,19.51
2017-07-16T04:59:34.621Z,19.52
2017-07-16T05:00:34.928Z,19.55
2017-07-16T05:01:34.900Z,19.49
2017-07-16T05:02:34.578Z,19.53
2017-07-16T05:03:34.560Z,19.58
2017-07-16T05:04:34.868Z,19.55
2017-07-16T05:05:34.215Z,19.52
2017-07-16T05:06:34.537Z,19.52
2017-07-16T05:07:34.807Z,19.56
2017-07-16T05:08:34.502Z,19.53
2017-07-16T05:09:34.468Z,19.66
2017-07-16T05:10:34.784Z,19.59
2017-07-16T05:11:34.437Z,19.69
2017-07-16T05:12:34.740Z,19.63
2017-07-16T05:13:34.415Z,19.66
2017-07-16T05:14:34.396Z,19.71
2017-07-16T05:15:34.381Z,19.66
2017-07-16T05:16:34.359Z,19.71
2017-07-16T05:17:34.352Z,19.61
2017-07-16T05:18:34.028Z,19.58
2017-07-16T05:19:34.326Z,19.67
2017-07-16T05:20:34.631Z,19.48
2017-07-16T05:21:34.618Z,19.49
2017-07-16T05:22:34.585Z,19.53
2017-07-16T05:23:34.569Z,19.51
2017-07-16T05:24:34.572Z,19.52
2017-07-16T05:25:34.236Z,19.49
2017-07-16T05:26:34.540Z,19.48
2017-07-16T05:27:34.529Z,19.55
2017-07-16T05:28:34.510Z,19.48
2017-07-16T05:29:33.860Z,19.4
2017-07-16T05:30:34.161Z,19.44
2017-07-16T05:31:34.139Z,19.58
2017-07-16T05:32:34.457Z,19.53
2017-07-16T05:33:34.418Z,19.59
2017-07-16T05:34:34.108Z,19.58
2017-07-16T05:35:34.085Z,19.61
2017-07-16T05:36:34.085Z,19.58
2017-07-16T05:37:33.750Z,19.51
2017-07-16T05:38:34.351Z,19.62
2017-07-16T05:39:34.100Z,19.58
2017-07-16T05:40:34.009Z,19.55
2017-07-16T05:41:34.012Z,19.53
2017-07-16T05:42:33.998Z,19.43
2017-07-16T05:43:33.980Z,19.43
2017-07-16T05:44:34.260Z,19.55
2017-07-16T05:45:33.992Z,19.56
2017-07-16T05:46:33.614Z,19.59
2017-07-16T05:47:33.957Z,19.63
2017-07-16T05:48:33.899Z,19.59
2017-07-16T05:49:33.888Z,19.61
2017-07-16T05:50:33.872Z,19.59
2017-07-16T05:51:34.158Z,19.7
2017-07-16T05:52:34.148Z,19.69
2017-07-16T05:53:34.137Z,19.74
2017-07-16T05:54:33.814Z,19.8
2017-07-16T05:55:33.940Z,19.81
2017-07-16T05:56:33.769Z,19.83
2017-07-16T05:57:34.219Z,19.88
2017-07-16T05:58:34.061Z,19.78
2017-07-16T05:59:33.742Z,19.7
2017-07-16T06:00:34.020Z,19.62
2017-07-16T06:01:34.061Z,19.51
2017-07-16T06:02:34.010Z,19.53
2017-07-16T06:03:33.679Z,19.48
2017-07-16T06:04:34.068Z,19.55
2017-07-16T06:05:33.639Z,19.55
2017-07-16T06:06:33.950Z,19.56
2017-07-16T06:07:33.608Z,19.56
2017-07-16T06:08:33.600Z,19.56
2017-07-16T06:09:33.901Z,19.59
2017-07-16T06:10:33.888Z,19.69
2017-07-16T06:11:33.549Z,19.67
2017-07-16T06:12:33.858Z,19.76
2017-07-16T06:13:33.839Z,19.71
2017-07-16T06:14:33.512Z,19.71
2017-07-16T06:15:33.509Z,19.69
2017-07-16T06:16:33.869Z,19.67
2017-07-16T06:17:33.799Z,19.69
2017-07-16T06:18:33.770Z,19.71
2017-07-16T06:19:33.451Z,19.74
2017-07-16T06:20:33.738Z,19.76
2017-07-16T06:21:33.729Z,19.77
2017-07-16T06:22:33.387Z,19.78
2017-07-16T06:23:33.692Z,19.76
2017-07-16T06:24:33.699Z,19.85
2017-07-16T06:25:33.666Z,19.83
2017-07-16T06:26:33.658Z,19.83
2017-07-16T06:27:33.320Z,19.81
2017-07-16T06:28:33.639Z,19.81
2017-07-16T06:29:33.607Z,19.76
2017-07-16T06:30:33.613Z,19.92
2017-07-16T06:31:33.589Z,19.92
2017-07-16T06:32:33.569Z,19.85
2017-07-16T06:33:33.562Z,19.8
2017-07-16T06:34:33.536Z,19.8
2017-07-16T06:35:33.195Z,19.78
2017-07-16T06:36:33.619Z,19.74
2017-07-16T06:37:33.168Z,19.67
2017-07-16T06:38:33.158Z,19.69
2017-07-16T06:39:33.153Z,19.8
2017-07-16T06:40:33.137Z,19.61
2017-07-16T06:41:33.118Z,19.56
2017-07-16T06:42:33.412Z,19.58
2017-07-16T06:43:33.409Z,19.62
2017-07-16T06:44:33.130Z,19.62
2017-07-16T06:45:33.378Z,19.73
2017-07-16T06:46:33.408Z,19.76
2017-07-16T06:47:33.346Z,19.85
2017-07-16T06:48:33.016Z,19.69
2017-07-16T06:49:33.306Z,19.71
2017-07-16T06:50:33.310Z,19.58
2017-07-16T06:51:33.270Z,19.67
2017-07-16T06:52:32.957Z,19.69
2017-07-16T06:53:33.257Z,19.66
2017-07-16T06:54:32.617Z,19.73
2017-07-16T06:55:33.235Z,19.77
2017-07-16T06:56:33.217Z,19.85
2017-07-16T06:57:33.208Z,19.78
2017-07-16T06:58:32.876Z,19.78
2017-07-16T06:59:33.159Z,19.93
2017-07-16T07:00:33.160Z,19.63
2017-07-16T07:01:33.171Z,19.63
2017-07-16T07:02:33.138Z,19.69
2017-07-16T07:03:32.805Z,19.7
2017-07-16T07:04:33.089Z,19.66
2017-07-16T07:05:32.507Z,19.66
2017-07-16T07:06:32.740Z,19.69
2017-07-16T07:07:32.738Z,19.59
2017-07-16T07:08:32.733Z,19.52
2017-07-16T07:09:32.523Z,19.52
2017-07-16T07:10:32.700Z,19.49
2017-07-16T07:11:33.004Z,19.56
2017-07-16T07:12:32.967Z,19.51
2017-07-16T07:13:32.349Z,19.63
2017-07-16T07:14:32.959Z,19.73
2017-07-16T07:15:32.631Z,19.63
2017-07-16T07:16:32.910Z,19.51
2017-07-16T07:17:32.668Z,19.52
2017-07-16T07:18:32.632Z,19.56
2017-07-16T07:19:32.686Z,19.55
2017-07-16T07:20:32.584Z,19.58
2017-07-16T07:21:32.526Z,19.61
2017-07-16T07:22:32.838Z,19.66
2017-07-16T07:23:32.527Z,19.77
2017-07-16T07:24:32.491Z,19.77
2017-07-16T07:25:32.475Z,19.85
2017-07-16T07:26:32.569Z,19.86
2017-07-16T07:27:32.141Z,19.95
2017-07-16T07:28:32.749Z,19.85
2017-07-16T07:29:32.480Z,19.76
2017-07-16T07:30:32.509Z,19.73
2017-07-16T07:31:32.690Z,19.71
2017-07-16T07:32:32.378Z,19.63
2017-07-16T07:33:32.681Z,19.71
2017-07-16T07:34:32.368Z,19.56
2017-07-16T07:35:32.638Z,19.55
2017-07-16T07:36:32.630Z,19.49
2017-07-16T07:37:32.332Z,19.38
2017-07-16T07:38:32.599Z,19.46
2017-07-16T07:39:32.581Z,19.52
2017-07-16T07:40:32.567Z,19.53
2017-07-16T07:41:32.249Z,19.69
2017-07-16T07:42:32.557Z,19.55
2017-07-16T07:43:31.894Z,19.58
2017-07-16T07:44:32.213Z,19.58
2017-07-16T07:45:32.192Z,19.61
2017-07-16T07:46:32.287Z,19.69
2017-07-16T07:47:32.462Z,19.76
2017-07-16T07:48:32.519Z,19.73
2017-07-16T07:49:32.482Z,19.61
2017-07-16T07:50:32.159Z,19.66
2017-07-16T07:51:32.503Z,19.73
2017-07-16T07:52:32.391Z,19.8
2017-07-16T07:53:32.460Z,19.74
2017-07-16T07:54:32.548Z,19.83
2017-07-16T07:55:31.732Z,19.74
2017-07-16T07:56:32.354Z,19.78
2017-07-16T07:57:32.339Z,19.81
2017-07-16T07:58:32.317Z,19.78
2017-07-16T07:59:31.968Z,19.83
2017-07-16T08:00:31.962Z,19.91
2017-07-16T08:01:32.269Z,19.78
2017-07-16T08:02:32.243Z,19.93
2017-07-16T08:03:32.244Z,19.91
2017-07-16T08:04:31.911Z,19.85
2017-07-16T08:05:31.578Z,19.81
2017-07-16T08:06:32.175Z,19.92
2017-07-16T08:07:32.190Z,19.99
2017-07-16T08:08:31.839Z,20.03
2017-07-16T08:09:32.140Z,20.2
2017-07-16T08:10:31.815Z,20.2
2017-07-16T08:11:31.805Z,20.29
2017-07-16T08:12:32.098Z,20.23
2017-07-16T08:13:31.764Z,20.08
2017-07-16T08:14:31.764Z,19.96
2017-07-16T08:15:32.058Z,20.06
2017-07-16T08:16:31.429Z,19.91
2017-07-16T08:17:32.054Z,19.93
2017-07-16T08:18:32.022Z,19.93
2017-07-16T08:19:31.678Z,20.11
2017-07-16T08:20:31.680Z,20.04
2017-07-16T08:21:31.340Z,20.06
2017-07-16T08:22:31.638Z,20.18
2017-07-16T08:23:31.990Z,20.18
2017-07-16T08:24:31.921Z,20.17
2017-07-16T08:25:31.621Z,20.22
2017-07-16T08:26:31.599Z,20.22
2017-07-16T08:27:31.566Z,20.06
2017-07-16T08:28:31.561Z,20.07
2017-07-16T08:29:31.544Z,20.08
2017-07-16T08:30:31.217Z,19.96
2017-07-16T08:31:31.508Z,19.99
2017-07-16T08:32:31.497Z,20.17
2017-07-16T08:33:31.498Z,20.25
2017-07-16T08:34:31.804Z,20.13
2017-07-16T08:35:31.776Z,20.1
2017-07-16T08:36:31.756Z,19.95
2017-07-16T08:37:31.431Z,19.95
2017-07-16T08:38:31.734Z,19.99
2017-07-16T08:39:31.706Z,19.76
2017-07-16T08:40:31.408Z,19.85
2017-07-16T08:41:31.689Z,19.95
2017-07-16T08:42:31.667Z,20.08
2017-07-16T08:43:31.347Z,19.93
2017-07-16T08:44:31.648Z,19.92
2017-07-16T08:45:31.656Z,20.1
2017-07-16T08:46:31.014Z,20.06
2017-07-16T08:47:31.596Z,20.17
2017-07-16T08:48:31.596Z,20.28
2017-07-16T08:49:31.280Z,20.17
2017-07-16T08:50:31.571Z,20.23
2017-07-16T08:51:31.248Z,20.22
2017-07-16T08:52:31.539Z,20.2
2017-07-16T08:53:31.537Z,20.1
2017-07-16T08:54:31.257Z,19.96
2017-07-16T08:55:31.484Z,20.03
2017-07-16T08:56:31.488Z,20.04
2017-07-16T08:57:31.486Z,19.98
2017-07-16T08:58:31.452Z,19.98
2017-07-16T08:59:31.449Z,19.93
2017-07-16T09:00:31.438Z,20.01
2017-07-16T09:01:31.418Z,19.98
2017-07-16T09:02:31.398Z,19.95
2017-07-16T09:03:31.377Z,20.08
2017-07-16T09:04:31.364Z,20.16
2017-07-16T09:05:31.047Z,20.18
2017-07-16T09:06:31.357Z,20.22
2017-07-16T09:07:31.338Z,20.23
2017-07-16T09:08:31.318Z,20.22
2017-07-16T09:09:31.296Z,20.33
2017-07-16T09:10:31.283Z,20.36
2017-07-16T09:11:31.289Z,20.32
2017-07-16T09:12:31.252Z,20.4
2017-07-16T09:13:31.257Z,20.4
2017-07-16T09:14:31.247Z,20.51
2017-07-16T09:15:30.885Z,20.41
2017-07-16T09:16:31.216Z,20.41
2017-07-16T09:17:30.865Z,20.38
2017-07-16T09:18:31.188Z,20.29
2017-07-16T09:19:31.155Z,20.43
2017-07-16T09:20:30.842Z,20.33
2017-07-16T09:21:31.198Z,20.08
2017-07-16T09:22:30.805Z,20.16
2017-07-16T09:23:30.895Z,20.26
2017-07-16T09:24:31.089Z,20.14
2017-07-16T09:25:31.069Z,20.22
2017-07-16T09:26:31.077Z,20.33
2017-07-16T09:27:31.029Z,20.4
2017-07-16T09:28:31.015Z,20.4
2017-07-16T09:29:31.135Z,20.49
2017-07-16T09:30:30.697Z,20.44
2017-07-16T09:31:31.005Z,20.54
2017-07-16T09:32:31.065Z,20.51
2017-07-16T09:33:30.979Z,20.48
2017-07-16T09:34:30.694Z,20.43
2017-07-16T09:35:30.622Z,20.38
2017-07-16T09:36:30.933Z,20.33
2017-07-16T09:37:30.585Z,20.31
2017-07-16T09:38:30.905Z,20.38
2017-07-16T09:39:30.583Z,20.32
2017-07-16T09:40:30.545Z,20.14
2017-07-16T09:41:30.859Z,20.2
2017-07-16T09:42:30.566Z,20.32
2017-07-16T09:43:30.924Z,20.26
2017-07-16T09:44:30.873Z,20.41
2017-07-16T09:45:30.809Z,20.36
2017-07-16T09:46:30.464Z,20.49
2017-07-16T09:47:30.768Z,20.4
2017-07-16T09:48:30.847Z,20.44
2017-07-16T09:49:30.766Z,20.18
2017-07-16T09:50:30.094Z,20.31
2017-07-16T09:51:30.756Z,20.43
2017-07-16T09:52:30.694Z,20.38
2017-07-16T09:53:30.354Z,20.51
2017-07-16T09:54:30.745Z,20.54
2017-07-16T09:55:30.701Z,20.52
2017-07-16T09:56:30.686Z,20.64
2017-07-16T09:57:30.309Z,20.72
2017-07-16T09:58:30.610Z,20.64
2017-07-16T09:59:30.303Z,20.66
2017-07-16T10:00:30.268Z,20.66
2017-07-16T10:01:30.260Z,20.69
2017-07-16T10:02:30.239Z,20.74
2017-07-16T10:03:30.555Z,20.89
2017-07-16T10:04:30.533Z,21.02
2017-07-16T10:05:30.514Z,21.13
2017-07-16T10:06:30.564Z,21.26
2017-07-16T10:07:29.846Z,21.21
2017-07-16T10:08:30.466Z,21.31
2017-07-16T10:09:30.147Z,21.21
2017-07-16T10:10:30.448Z,21.24
2017-07-16T10:11:29.794Z,21.31
2017-07-16T10:12:30.100Z,21.4
2017-07-16T10:13:30.404Z,21.54
2017-07-16T10:14:30.095Z,21.59
2017-07-16T10:15:30.071Z,21.76
2017-07-16T10:16:30.387Z,21.66
2017-07-16T10:17:29.713Z,21.83
2017-07-16T10:18:30.031Z,21.86
2017-07-16T10:19:30.346Z,21.88
2017-07-16T10:20:30.360Z,21.96
2017-07-16T10:21:29.994Z,22.12
2017-07-16T10:22:30.268Z,22.17
2017-07-16T10:23:30.284Z,22.1
2017-07-16T10:24:30.265Z,22.32
2017-07-16T10:25:30.256Z,22.27
2017-07-16T10:26:30.248Z,22.37
2017-07-16T10:27:30.235Z,22.35
2017-07-16T10:28:30.219Z,22.42
2017-07-16T10:29:29.896Z,22.43
2017-07-16T10:30:29.885Z,22.52
2017-07-16T10:31:30.195Z,22.52
2017-07-16T10:32:30.190Z,22.43
2017-07-16T10:33:30.164Z,22.12
2017-07-16T10:34:30.147Z,22.2
2017-07-16T10:35:30.117Z,22.29
2017-07-16T10:36:29.820Z,22.14
2017-07-16T10:37:30.116Z,22.11
2017-07-16T10:38:30.104Z,22.05
2017-07-16T10:39:30.093Z,22.12
2017-07-16T10:40:29.774Z,22.17
2017-07-16T10:41:29.754Z,22.03
2017-07-16T10:42:30.055Z,22.12
2017-07-16T10:43:30.038Z,22.05
2017-07-16T10:44:29.724Z,22.05
2017-07-16T10:45:30.035Z,22.1
2017-07-16T10:46:29.995Z,21.99
2017-07-16T10:47:29.682Z,22.02
2017-07-16T10:48:29.652Z,22.11
2017-07-16T10:49:29.650Z,22.11
2017-07-16T10:50:29.967Z,22.06
2017-07-16T10:51:29.953Z,22.11
2017-07-16T10:52:29.953Z,22.08
2017-07-16T10:53:29.613Z,22.17
2017-07-16T10:54:29.586Z,22.42
2017-07-16T10:55:29.924Z,22.37
2017-07-16T10:56:29.907Z,22.1
2017-07-16T10:57:29.562Z,22.18
2017-07-16T10:58:29.878Z,22.39
2017-07-16T10:59:29.538Z,22.51
2017-07-16T11:00:29.519Z,22.48
2017-07-16T11:01:29.525Z,22.52
2017-07-16T11:02:29.507Z,22.39
2017-07-16T11:03:29.493Z,22.37
2017-07-16T11:04:29.795Z,22.42
2017-07-16T11:05:29.767Z,22.32
2017-07-16T11:06:29.450Z,22.21
2017-07-16T11:07:29.454Z,22.21
2017-07-16T11:08:29.733Z,22.21
2017-07-16T11:09:29.565Z,22.21
2017-07-16T11:10:29.744Z,22.15
2017-07-16T11:11:29.714Z,22.11
2017-07-16T11:12:29.713Z,22.1
2017-07-16T11:13:29.680Z,22.12
2017-07-16T11:14:29.677Z,22.11
2017-07-16T11:15:29.659Z,22.25
2017-07-16T11:16:29.638Z,22.1
2017-07-16T11:17:29.675Z,22.11
2017-07-16T11:18:29.301Z,22.33
2017-07-16T11:19:29.296Z,22.42
2017-07-16T11:20:29.276Z,22.48
2017-07-16T11:21:29.285Z,22.79
2017-07-16T11:22:28.949Z,22.84
2017-07-16T11:23:29.564Z,22.91
2017-07-16T11:24:29.543Z,22.99
2017-07-16T11:25:29.535Z,22.97
2017-07-16T11:26:29.524Z,22.97
2017-07-16T11:27:29.536Z,22.95
2017-07-16T11:28:29.514Z,22.91
2017-07-16T11:29:29.204Z,22.88
2017-07-16T11:30:29.476Z,22.82
2017-07-16T11:31:29.473Z,22.76
2017-07-16T11:32:29.135Z,22.61
2017-07-16T11:33:29.125Z,22.62
2017-07-16T11:34:29.468Z,22.59
2017-07-16T11:35:29.420Z,22.66
2017-07-16T11:36:29.105Z,22.65
2017-07-16T11:37:29.114Z,22.69
2017-07-16T11:38:29.396Z,22.61
2017-07-16T11:39:29.064Z,22.47
2017-07-16T11:40:29.054Z,22.32
2017-07-16T11:41:29.339Z,22.45
2017-07-16T11:42:29.040Z,22.47
2017-07-16T11:43:29.334Z,22.47
2017-07-16T11:44:29.004Z,22.43
2017-07-16T11:45:29.300Z,22.35
2017-07-16T11:46:29.285Z,22.17
2017-07-16T11:47:29.267Z,22.21
2017-07-16T11:48:29.286Z,22.2
2017-07-16T11:49:28.988Z,22.08
2017-07-16T11:50:29.283Z,22.03
2017-07-16T11:51:29.214Z,22.14
2017-07-16T11:52:28.920Z,22.11
2017-07-16T11:53:29.215Z,22.06
2017-07-16T11:54:28.997Z,22.11
2017-07-16T11:55:29.274Z,22.14
2017-07-16T11:56:29.252Z,22.22
2017-07-16T11:57:29.270Z,22.08
2017-07-16T11:58:29.184Z,22.08
2017-07-16T11:59:29.137Z,22.11
2017-07-16T12:00:29.189Z,22.21
2017-07-16T12:01:28.806Z,22.25
2017-07-16T12:02:28.831Z,22.32
2017-07-16T12:03:28.849Z,22.39
2017-07-16T12:04:29.133Z,22.32
2017-07-16T12:05:29.065Z,22.17
2017-07-16T12:06:29.099Z,22.21
2017-07-16T12:07:29.041Z,22.25
2017-07-16T12:08:29.032Z,22.25
2017-07-16T12:09:29.016Z,22.21
2017-07-16T12:10:29.016Z,22.21
2017-07-16T12:11:28.997Z,22.27
2017-07-16T12:12:28.988Z,22.21
2017-07-16T12:13:28.975Z,21.99
2017-07-16T12:14:28.966Z,22
2017-07-16T12:15:28.960Z,21.96
2017-07-16T12:16:28.944Z,22.05
2017-07-16T12:17:28.924Z,22.15
2017-07-16T12:18:28.991Z,22.15
2017-07-16T12:19:28.908Z,22.3
2017-07-16T12:20:28.574Z,22.36
2017-07-16T12:21:28.876Z,22.58
2017-07-16T12:22:28.855Z,22.67
2017-07-16T12:23:28.831Z,22.69
2017-07-16T12:24:28.834Z,22.66
2017-07-16T12:25:28.819Z,22.79
2017-07-16T12:26:28.807Z,22.92
2017-07-16T12:27:28.837Z,22.88
2017-07-16T12:28:28.794Z,23.04
2017-07-16T12:29:28.464Z,23.12
2017-07-16T12:30:28.772Z,23.28
2017-07-16T12:31:28.739Z,23.28
2017-07-16T12:32:28.753Z,23.12
2017-07-16T12:33:28.735Z,23.27
2017-07-16T12:34:28.395Z,23.19
2017-07-16T12:35:28.690Z,23.29
2017-07-16T12:36:28.359Z,23.1
2017-07-16T12:37:28.366Z,23.16
2017-07-16T12:38:28.665Z,22.95
2017-07-16T12:39:28.675Z,23.02
2017-07-16T12:40:28.335Z,23.16
2017-07-16T12:41:28.335Z,23.24
2017-07-16T12:42:28.371Z,23.29
2017-07-16T12:43:27.975Z,23.38
2017-07-16T12:44:28.604Z,23.35
2017-07-16T12:45:28.577Z,23.42
2017-07-16T12:46:28.565Z,23.25
2017-07-16T12:47:28.571Z,23.36
2017-07-16T12:48:28.535Z,23.36
2017-07-16T12:49:28.545Z,23.41
2017-07-16T12:50:28.524Z,23.32
2017-07-16T12:51:28.518Z,23.06
2017-07-16T12:52:28.520Z,23.03
2017-07-16T12:53:28.515Z,23.04
2017-07-16T12:54:28.538Z,22.88
2017-07-16T12:55:28.482Z,22.97